createdAt,value
2024-04-10T05:00:42.856Z,77.55
2024-04-10T05:01:42.747Z,77.65
2024-04-10T05:02:42.967Z,77.95
2024-04-10T05:03:42.880Z,78.27
2024-04-10T05:04:42.791Z,78.27
2024-04-10T05:05:42.787Z,77.95
2024-04-10T05:06:42.696Z,78.06
2024-04-10T05:07:42.697Z,78.16
2024-04-10T05:08:42.678Z,78.06
2024-04-10T05:09:42.681Z,78.16
2024-04-10T05:10:42.666Z,77.65
2024-04-10T05:11:47.771Z,77.23
2024-04-10T05:12:42.856Z,77.55
2024-04-10T05:13:42.616Z,77.40
2024-04-10T05:14:42.634Z,77.34
2024-04-10T05:15:42.655Z,77.65
2024-04-10T05:16:42.603Z,77.30
2024-04-10T05:17:42.788Z,77.34
2024-04-10T05:18:42.569Z,77.40
2024-04-10T05:19:42.546Z,77.55
2024-04-10T05:20:42.681Z,77.71
2024-04-10T05:21:42.536Z,77.71
2024-04-10T05:22:47.554Z,77.44
2024-04-10T05:23:42.559Z,77.30
2024-04-10T05:24:42.489Z,77.34
2024-04-10T05:25:42.515Z,77.34
2024-04-10T05:26:42.525Z,77.44
2024-04-10T05:27:42.470Z,77.55
2024-04-10T05:28:42.446Z,77.65
2024-04-10T05:29:42.512Z,77.44
2024-04-10T05:30:42.423Z,77.44
2024-04-10T05:31:42.420Z,77.34
2024-04-10T05:32:42.932Z,77.44
2024-04-10T05:33:47.619Z,77.65
2024-04-10T05:34:42.395Z,77.75
2024-04-10T05:35:42.376Z,77.34
2024-04-10T05:36:42.374Z,77.44
2024-04-10T05:37:42.392Z,77.23
2024-04-10T05:38:42.392Z,77.44
2024-04-10T05:39:42.341Z,77.65
2024-04-10T05:40:42.348Z,77.51
2024-04-10T05:41:42.440Z,76.79
2024-04-10T05:42:42.301Z,76.68
2024-04-10T05:43:42.281Z,76.68
2024-04-10T05:44:47.290Z,76.79
2024-04-10T05:45:42.256Z,76.68
2024-04-10T05:46:42.292Z,75.83
2024-04-10T05:47:42.542Z,74.87
2024-04-10T05:48:42.474Z,74.77
2024-04-10T05:49:42.212Z,74.43
2024-04-10T05:50:42.253Z,73.81
2024-04-10T05:51:42.189Z,73.06
2024-04-10T05:52:42.294Z,73.03
2024-04-10T05:53:42.362Z,72.61
2024-04-10T05:54:42.162Z,71.49
2024-04-10T05:55:47.164Z,71.39
2024-04-10T05:56:42.205Z,71.49
2024-04-10T05:57:42.121Z,72.55
2024-04-10T05:58:42.148Z,73.10
2024-04-10T05:59:42.130Z,73.30
2024-04-10T06:00:42.115Z,73.81
2024-04-10T06:01:42.151Z,73.50
2024-04-10T06:02:42.274Z,74.12
2024-04-10T06:03:42.147Z,73.50
2024-04-10T06:04:42.096Z,73.30
2024-04-10T06:05:42.101Z,73.30
2024-04-10T06:06:47.068Z,73.71
2024-04-10T06:07:42.011Z,73.81
2024-04-10T06:08:42.340Z,74.36
2024-04-10T06:09:41.995Z,74.66
2024-04-10T06:10:42.007Z,73.91
2024-04-10T06:11:42.062Z,74.02
2024-04-10T06:12:42.012Z,72.99
2024-04-10T06:13:41.961Z,72.78
2024-04-10T06:14:42.000Z,72.89
2024-04-10T06:15:42.024Z,72.99
2024-04-10T06:16:42.061Z,73.10
2024-04-10T06:17:47.054Z,73.10
2024-04-10T06:18:41.899Z,73.19
2024-04-10T06:19:41.884Z,73.10
2024-04-10T06:20:41.910Z,73.50
2024-04-10T06:21:41.855Z,73.10
2024-04-10T06:22:41.857Z,72.99
2024-04-10T06:23:41.869Z,72.89
2024-04-10T06:24:41.818Z,72.86
2024-04-10T06:25:41.812Z,72.44
2024-04-10T06:26:42.041Z,72.44
2024-04-10T06:27:41.787Z,71.80
2024-04-10T06:28:46.827Z,72.31
2024-04-10T06:29:41.818Z,72.55
2024-04-10T06:30:41.753Z,72.65
2024-04-10T06:31:41.791Z,72.14
2024-04-10T06:32:41.878Z,72.31
2024-04-10T06:33:41.827Z,71.52
2024-04-10T06:34:41.719Z,71.28
2024-04-10T06:35:41.732Z,70.98
2024-04-10T06:36:41.732Z,71.08
2024-04-10T06:37:41.680Z,71.18
2024-04-10T06:38:41.734Z,70.36
2024-04-10T06:39:46.684Z,70.77
2024-04-10T06:40:41.675Z,70.84
2024-04-10T06:41:41.644Z,69.82
2024-04-10T06:42:41.631Z,70.20
2024-04-10T06:43:41.648Z,69.96
2024-04-10T06:44:41.650Z,70.75
2024-04-10T06:45:41.583Z,71.42
2024-04-10T06:46:41.583Z,67.10
2024-04-10T06:47:42.181Z,68.91
2024-04-10T06:48:42.061Z,66.53
2024-04-10T06:49:41.616Z,65.10
2024-04-10T06:50:46.594Z,65.41
2024-04-10T06:51:41.524Z,66.94
2024-04-10T06:52:41.574Z,65.78
2024-04-10T06:53:41.543Z,63.85
2024-04-10T06:54:41.482Z,63.99
2024-04-10T06:55:41.482Z,63.32
2024-04-10T06:56:41.599Z,61.25
2024-04-10T06:57:41.501Z,60.64
2024-04-10T06:58:41.496Z,61.11
2024-04-10T06:59:41.587Z,62.18
2024-04-10T07:00:41.553Z,63.31
2024-04-10T07:01:46.449Z,63.13
2024-04-10T07:02:41.647Z,63.51
2024-04-10T07:03:41.756Z,63.34
2024-04-10T07:04:41.414Z,63.64
2024-04-10T07:05:41.396Z,63.41
2024-04-10T07:06:41.348Z,63.41
2024-04-10T07:07:41.340Z,63.18
2024-04-10T07:08:44.298Z,62.26
2024-04-10T07:09:41.317Z,61.72
2024-04-10T07:10:41.401Z,62.39
2024-04-10T07:11:41.490Z,63.34
2024-04-10T07:12:46.319Z,63.13
2024-04-10T07:13:41.299Z,63.03
2024-04-10T07:14:41.380Z,62.39
2024-04-10T07:15:41.284Z,62.59
2024-04-10T07:16:41.297Z,62.80
2024-04-10T07:17:41.379Z,62.42
2024-04-10T07:18:42.007Z,63.34
2024-04-10T07:19:41.228Z,63.51
2024-04-10T07:20:41.281Z,62.36
2024-04-10T07:21:41.186Z,61.61
2024-04-10T07:22:41.186Z,61.14
2024-04-10T07:23:46.203Z,61.37
2024-04-10T07:24:41.164Z,62.29
2024-04-10T07:25:41.164Z,62.18
2024-04-10T07:26:41.229Z,62.05
2024-04-10T07:27:41.124Z,61.65
2024-04-10T07:28:41.661Z,61.31
2024-04-10T07:29:41.274Z,60.50
2024-04-10T07:30:41.095Z,60.98
2024-04-10T07:31:41.090Z,60.16
2024-04-10T07:32:41.272Z,60.70
2024-04-10T07:33:41.164Z,61.14
2024-04-10T07:34:46.079Z,61.24
2024-04-10T07:35:41.086Z,61.44
2024-04-10T07:36:43.402Z,61.57
2024-04-10T07:37:41.019Z,61.54
2024-04-10T07:38:41.052Z,60.70
2024-04-10T07:39:41.007Z,60.88
2024-04-10T07:40:40.975Z,60.85
2024-04-10T07:41:41.019Z,59.12
2024-04-10T07:42:42.022Z,59.70
2024-04-10T07:43:40.965Z,59.09
2024-04-10T07:44:43.746Z,59.60
2024-04-10T07:45:45.933Z,58.28
2024-04-10T07:46:40.916Z,59.88
2024-04-10T07:47:41.050Z,58.78
2024-04-10T07:48:43.772Z,59.19
2024-04-10T07:49:40.933Z,59.12
2024-04-10T07:50:40.984Z,60.91
2024-04-10T07:51:40.892Z,61.57
2024-04-10T07:52:40.835Z,61.14
2024-04-10T07:53:40.886Z,61.24
2024-04-10T07:54:40.825Z,61.37
2024-04-10T07:55:43.113Z,62.49
2024-04-10T07:56:45.852Z,63.23
2024-04-10T07:57:40.792Z,62.93
2024-04-10T07:58:40.786Z,62.90
2024-04-10T07:59:40.798Z,61.61
2024-04-10T08:00:40.775Z,61.05
2024-04-10T08:01:40.752Z,59.27
2024-04-10T08:02:40.878Z,57.95
2024-04-10T08:03:40.920Z,59.86
2024-04-10T08:04:40.748Z,60.34
2024-04-10T08:05:40.742Z,59.53
2024-04-10T08:06:40.688Z,59.91
2024-04-10T08:07:45.698Z,59.39
2024-04-10T08:08:40.683Z,59.39
2024-04-10T08:09:40.644Z,58.73
2024-04-10T08:10:40.668Z,56.57
2024-04-10T08:11:40.821Z,56.85
2024-04-10T08:12:40.613Z,56.04
2024-04-10T08:13:40.609Z,56.52
2024-04-10T08:14:40.614Z,55.88
2024-04-10T08:15:40.580Z,54.11
2024-04-10T08:16:40.716Z,53.52
2024-04-10T08:17:40.607Z,53.83
2024-04-10T08:18:45.672Z,54.33
2024-04-10T08:19:40.546Z,54.24
2024-04-10T08:20:40.552Z,53.91
2024-04-10T08:21:40.520Z,53.93
2024-04-10T08:22:40.523Z,54.49
2024-04-10T08:23:40.786Z,55.83
2024-04-10T08:24:40.490Z,55.86
2024-04-10T08:25:40.492Z,56.62
2024-04-10T08:26:40.497Z,57.31
2024-04-10T08:27:40.474Z,56.87
2024-04-10T08:28:40.433Z,55.93
2024-04-10T08:29:45.481Z,55.93
2024-04-10T08:30:40.411Z,55.80
2024-04-10T08:31:40.416Z,55.63
2024-04-10T08:32:40.818Z,55.10
2024-04-10T08:33:40.492Z,55.43
2024-04-10T08:34:40.753Z,55.53
2024-04-10T08:35:40.352Z,55.53
2024-04-10T08:36:40.367Z,55.96
2024-04-10T08:37:41.057Z,56.87
2024-04-10T08:38:40.385Z,56.87
2024-04-10T08:39:40.327Z,56.87
2024-04-10T08:40:45.361Z,56.37
2024-04-10T08:41:40.288Z,56.34
2024-04-10T08:42:40.317Z,56.13
2024-04-10T08:43:40.297Z,55.83
2024-04-10T08:44:40.273Z,55.80
2024-04-10T08:45:40.242Z,55.98
2024-04-10T08:46:40.248Z,55.15
2024-04-10T08:47:40.520Z,55.07
2024-04-10T08:48:40.444Z,55.37
2024-04-10T08:49:40.195Z,55.17
2024-04-10T08:50:40.212Z,55.58
2024-04-10T08:51:45.330Z,55.27
2024-04-10T08:52:40.183Z,55.93
2024-04-10T08:53:40.150Z,56.95
2024-04-10T08:54:40.163Z,56.34
2024-04-10T08:55:46.186Z,56.31
2024-04-10T08:56:41.162Z,55.60
2024-04-10T08:57:40.279Z,55.78
2024-04-10T08:58:40.095Z,55.50
2024-04-10T08:59:40.109Z,55.68
2024-04-10T09:00:40.155Z,54.64
2024-04-10T09:01:40.252Z,54.61
2024-04-10T09:02:45.113Z,54.71
2024-04-10T09:03:40.473Z,55.73
2024-04-10T09:04:40.233Z,55.52
2024-04-10T09:05:40.025Z,54.82
2024-04-10T09:06:40.853Z,55.02
2024-04-10T09:07:39.998Z,54.61
2024-04-10T09:08:40.008Z,54.71
2024-04-10T09:09:40.069Z,54.44
2024-04-10T09:10:39.966Z,55.27
2024-04-10T09:11:40.655Z,55.80
2024-04-10T09:12:39.942Z,55.93
2024-04-10T09:13:44.963Z,56.95
2024-04-10T09:14:39.912Z,56.98
2024-04-10T09:15:39.921Z,56.87
2024-04-10T09:16:40.004Z,57.05
2024-04-10T09:17:39.906Z,56.21
2024-04-10T09:18:39.886Z,55.45
2024-04-10T09:19:39.926Z,55.32
2024-04-10T09:20:39.872Z,54.71
2024-04-10T09:21:39.858Z,55.27
2024-04-10T09:22:39.899Z,54.99
2024-04-10T09:23:40.088Z,54.90
2024-04-10T09:24:44.828Z,54.92
2024-04-10T09:25:39.818Z,54.46
2024-04-10T09:26:39.993Z,52.92
2024-04-10T09:27:39.799Z,52.08
2024-04-10T09:28:39.763Z,52.11
2024-04-10T09:29:39.890Z,50.26
2024-04-10T09:30:39.735Z,49.66
2024-04-10T09:31:39.748Z,50.49
2024-04-10T09:32:40.027Z,51.83
2024-04-10T09:33:39.870Z,51.55
2024-04-10T09:34:40.129Z,52.59
2024-04-10T09:35:44.741Z,53.40
2024-04-10T09:36:39.731Z,53.65
2024-04-10T09:37:39.732Z,53.02
2024-04-10T09:38:39.779Z,54.36
2024-04-10T09:39:39.659Z,54.49
2024-04-10T09:40:39.650Z,54.97
2024-04-10T09:41:39.728Z,54.57
2024-04-10T09:42:39.675Z,54.90
2024-04-10T09:43:39.600Z,54.59
2024-04-10T09:44:39.670Z,54.79
2024-04-10T09:45:39.588Z,54.82
2024-04-10T09:46:44.634Z,55.83
2024-04-10T09:47:39.648Z,55.83
2024-04-10T09:48:39.716Z,55.32
2024-04-10T09:49:39.622Z,55.63
2024-04-10T09:50:39.600Z,55.73
2024-04-10T09:51:39.534Z,55.63
2024-04-10T09:52:39.494Z,55.66
2024-04-10T09:53:39.531Z,55.86
2024-04-10T09:54:40.427Z,55.35
2024-04-10T09:55:39.494Z,55.88
2024-04-10T09:56:39.486Z,56.39
2024-04-10T09:57:44.466Z,56.21
2024-04-10T09:58:39.425Z,56.49
2024-04-10T09:59:39.836Z,57.21
2024-04-10T10:00:39.443Z,55.78
2024-04-10T10:01:39.406Z,56.09
2024-04-10T10:02:39.539Z,56.90
2024-04-10T10:03:39.632Z,56.29
2024-04-10T10:04:39.454Z,56.26
2024-04-10T10:06:39.376Z,55.55
2024-04-10T10:07:39.327Z,55.27
2024-04-10T10:08:44.409Z,53.85
2024-04-10T10:09:39.320Z,53.78
2024-04-10T10:10:39.379Z,55.40
2024-04-10T10:11:39.377Z,54.87
2024-04-10T10:12:39.279Z,54.66
2024-04-10T10:13:39.274Z,53.85
2024-04-10T10:14:39.454Z,53.02
2024-04-10T10:15:39.265Z,53.09
2024-04-10T10:16:39.426Z,52.25
2024-04-10T10:17:49.803Z,52.46
2024-04-10T10:18:39.363Z,52.15
2024-04-10T10:19:44.252Z,51.82
2024-04-10T10:20:39.196Z,51.85
2024-04-10T10:21:39.246Z,52.79
2024-04-10T10:22:39.175Z,53.50
2024-04-10T10:23:39.212Z,53.60
2024-04-10T10:24:39.147Z,52.79
2024-04-10T10:25:39.130Z,53.30
2024-04-10T10:26:39.167Z,52.89
2024-04-10T10:27:39.175Z,53.19
2024-04-10T10:28:40.015Z,51.87
2024-04-10T10:29:39.153Z,52.38
2024-04-10T10:30:46.365Z,51.77
2024-04-10T10:31:39.062Z,51.21
2024-04-10T10:32:39.282Z,50.18
2024-04-10T10:33:39.232Z,49.34
2024-04-10T10:34:39.271Z,49.44
2024-04-10T10:35:39.120Z,48.23
2024-04-10T10:36:39.009Z,48.23
2024-04-10T10:37:39.008Z,47.31
2024-04-10T10:38:39.072Z,47.70
2024-04-10T10:39:38.994Z,46.67
2024-04-10T10:40:38.983Z,47.09
2024-04-10T10:41:44.524Z,46.87
2024-04-10T10:42:38.966Z,47.07
2024-04-10T10:43:38.932Z,47.50
2024-04-10T10:44:38.984Z,48.11
2024-04-10T10:45:38.935Z,48.31
2024-04-10T10:46:38.970Z,47.90
2024-04-10T10:47:38.974Z,47.80
2024-04-10T10:48:38.931Z,47.47
2024-04-10T10:49:38.904Z,46.46
2024-04-10T10:50:38.936Z,47.07
2024-04-10T10:51:38.859Z,47.98
2024-04-10T10:52:43.899Z,46.97
2024-04-10T10:53:38.864Z,47.27
2024-04-10T10:54:38.806Z,47.27
2024-04-10T10:55:38.798Z,46.77
2024-04-10T10:56:38.811Z,46.67
2024-04-10T10:57:38.771Z,47.80
2024-04-10T10:58:38.884Z,47.39
2024-04-10T10:59:38.802Z,47.39
2024-04-10T11:00:38.791Z,47.22
2024-04-10T11:01:38.763Z,47.31
2024-04-10T11:02:38.788Z,47.75
2024-04-10T11:03:43.831Z,48.27
2024-04-10T11:04:38.886Z,48.50
2024-04-10T11:05:38.752Z,47.79
2024-04-10T11:06:38.756Z,47.79
2024-04-10T11:07:38.659Z,48.10
2024-04-10T11:08:38.697Z,47.00
2024-04-10T11:09:38.649Z,46.88
2024-04-10T11:10:38.635Z,46.88
2024-04-10T11:11:38.724Z,47.36
2024-04-10T11:12:38.679Z,46.55
2024-04-10T11:13:38.645Z,46.22
2024-04-10T11:14:43.635Z,46.22
2024-04-10T11:15:38.585Z,46.51
2024-04-10T11:16:38.615Z,46.48
2024-04-10T11:17:38.695Z,45.75
2024-04-10T11:18:38.608Z,45.51
2024-04-10T11:19:46.955Z,43.67
2024-04-10T11:20:38.560Z,41.95
2024-04-10T11:21:40.631Z,42.03
2024-04-10T11:22:38.510Z,41.73
2024-04-10T11:23:38.558Z,42.66
2024-04-10T11:24:38.474Z,43.16
2024-04-10T11:25:43.479Z,43.69
2024-04-10T11:26:38.458Z,43.37
2024-04-10T11:27:38.432Z,43.38
2024-04-10T11:28:38.433Z,43.18
2024-04-10T11:29:38.483Z,42.88
2024-04-10T11:30:38.398Z,43.30
2024-04-10T11:31:38.385Z,43.38
2024-04-10T11:32:38.520Z,43.46
2024-04-10T11:33:38.651Z,43.57
2024-04-10T11:34:38.668Z,42.76
2024-04-10T11:35:38.508Z,41.83
2024-04-10T11:36:43.347Z,42.32
2024-04-10T11:37:38.337Z,41.55
2024-04-10T11:38:38.382Z,40.32
2024-04-10T11:39:38.307Z,40.32
2024-04-10T11:40:38.288Z,40.96
2024-04-10T11:41:38.380Z,40.78
2024-04-10T11:42:38.264Z,41.63
2024-04-10T11:43:38.274Z,40.82
2024-04-10T11:44:38.253Z,41.12
2024-04-10T11:45:38.234Z,41.52
2024-04-10T11:46:38.294Z,41.02
2024-04-10T11:47:43.775Z,42.54
2024-04-10T11:48:38.314Z,41.93
2024-04-10T11:49:38.189Z,41.12
2024-04-10T11:50:38.225Z,41.24
2024-04-10T11:51:38.168Z,40.84
2024-04-10T11:52:39.570Z,41.42
2024-04-10T11:53:38.221Z,40.64
2024-04-10T11:54:38.146Z,41.85
2024-04-10T11:55:38.129Z,40.33
2024-04-10T11:56:38.127Z,41.02
2024-04-10T11:57:38.120Z,39.61
2024-04-10T11:58:43.225Z,38.80
2024-04-10T11:59:38.154Z,39.91
2024-04-10T12:00:38.066Z,39.93
2024-04-10T12:01:38.056Z,40.86
2024-04-10T12:02:38.125Z,41.56
2024-04-10T12:03:38.229Z,41.14
2024-04-10T12:04:38.049Z,40.73
2024-04-10T12:05:38.329Z,41.55
2024-04-10T12:06:38.007Z,41.35
2024-04-10T12:07:37.987Z,40.44
2024-04-10T12:08:38.075Z,40.44
2024-04-10T12:09:43.067Z,40.44
2024-04-10T12:10:37.953Z,40.44
2024-04-10T12:11:38.098Z,40.52
2024-04-10T12:12:38.296Z,40.31
2024-04-10T12:13:37.947Z,39.91
2024-04-10T12:14:37.963Z,40.11
2024-04-10T12:15:37.903Z,40.03
2024-04-10T12:16:37.929Z,40.27
2024-04-10T12:17:38.090Z,40.19
2024-04-10T12:18:38.046Z,41.63
2024-04-10T12:19:37.866Z,42.13
2024-04-10T12:20:42.952Z,41.80
2024-04-10T12:21:37.833Z,41.50
2024-04-10T12:22:37.832Z,41.00
2024-04-10T12:23:37.850Z,41.28
2024-04-10T12:24:37.798Z,40.47
2024-04-10T12:25:37.931Z,40.06
2024-04-10T12:26:37.820Z,40.37
2024-04-10T12:27:37.790Z,40.57
2024-04-10T12:28:37.749Z,39.97
2024-04-10T12:29:37.767Z,40.13
2024-04-10T12:30:37.769Z,38.35
2024-04-10T12:31:42.757Z,37.58
2024-04-10T12:32:37.905Z,36.50
2024-04-10T12:33:37.884Z,33.42
2024-04-10T12:34:37.916Z,32.59
2024-04-10T12:35:37.694Z,31.96
2024-04-10T12:36:37.688Z,32.23
2024-04-10T12:37:37.649Z,30.99
2024-04-10T12:38:37.659Z,30.48
2024-04-10T12:39:37.639Z,30.33
2024-04-10T12:40:37.642Z,29.06
2024-04-10T12:41:37.624Z,30.88
2024-04-10T12:42:42.629Z,30.71
2024-04-10T12:43:37.590Z,31.01
2024-04-10T12:44:37.620Z,29.31
2024-04-10T12:45:37.565Z,29.72
2024-04-10T12:46:37.624Z,31.04
2024-04-10T12:47:37.743Z,30.93
2024-04-10T12:48:37.628Z,30.78
2024-04-10T12:49:37.519Z,28.55
2024-04-10T12:50:37.553Z,28.03
2024-04-10T12:51:37.509Z,27.42
2024-04-10T12:52:37.495Z,27.33
2024-04-10T12:53:42.553Z,28.39
2024-04-10T12:54:37.551Z,29.99
2024-04-10T12:55:39.293Z,31.38
2024-04-10T12:56:37.492Z,29.38
2024-04-10T12:57:37.471Z,29.67
2024-04-10T12:58:37.422Z,29.35
2024-04-10T12:59:37.465Z,28.53
2024-04-10T13:00:37.458Z,27.42
2024-04-10T13:01:37.399Z,27.53
2024-04-10T13:02:37.480Z,28.45
2024-04-10T13:03:37.923Z,29.19
2024-04-10T13:04:37.401Z,30.24
2024-04-10T13:05:37.402Z,30.78
2024-04-10T13:06:42.371Z,32.10
2024-04-10T13:07:37.348Z,32.87
2024-04-10T13:08:37.381Z,32.91
2024-04-10T13:09:37.307Z,34.74
2024-04-10T13:10:37.298Z,34.56
2024-04-10T13:11:37.359Z,34.86
2024-04-10T13:12:37.358Z,35.08
2024-04-10T13:13:38.272Z,34.89
2024-04-10T13:14:37.405Z,35.92
2024-04-10T13:15:37.226Z,36.62
2024-04-10T13:16:37.239Z,37.43
2024-04-10T13:17:37.342Z,36.93
2024-04-10T13:18:37.315Z,37.02
2024-04-10T13:19:42.221Z,37.63
2024-04-10T13:20:37.205Z,37.53
2024-04-10T13:21:37.178Z,38.24
2024-04-10T13:22:37.164Z,38.64
2024-04-10T13:23:37.209Z,37.82
2024-04-10T13:24:37.187Z,38.32
2024-04-10T13:25:37.113Z,37.63
2024-04-10T13:26:37.190Z,38.02
2024-04-10T13:27:37.095Z,36.72
2024-04-10T13:28:37.096Z,36.82
2024-04-10T13:29:37.114Z,37.73
2024-04-10T13:30:42.092Z,37.53
2024-04-10T13:31:37.069Z,37.65
2024-04-10T13:32:37.238Z,37.55
2024-04-10T13:33:37.251Z,37.55
2024-04-10T13:34:37.225Z,38.46
2024-04-10T13:35:37.023Z,37.55
2024-04-10T13:36:37.011Z,37.77
2024-04-10T13:37:41.911Z,37.65
2024-04-10T13:38:36.984Z,37.77
2024-04-10T13:39:36.972Z,37.59
2024-04-10T13:40:36.971Z,38.21
2024-04-10T13:41:42.013Z,38.92
2024-04-10T13:42:36.950Z,38.61
2024-04-10T13:43:38.579Z,38.51
2024-04-10T13:44:36.955Z,38.82
2024-04-10T13:45:37.067Z,38.43
2024-04-10T13:46:36.912Z,39.64
2024-04-10T13:47:36.922Z,39.34
2024-04-10T13:48:37.207Z,39.84
2024-04-10T13:49:36.853Z,39.44
2024-04-10T13:50:37.076Z,39.44
2024-04-10T13:51:36.832Z,39.52
2024-04-10T13:52:41.849Z,39.95
2024-04-10T13:53:36.838Z,39.24
2024-04-10T13:54:36.821Z,40.37
2024-04-10T13:55:36.809Z,39.76
2024-04-10T13:56:36.860Z,40.17
2024-04-10T13:57:36.788Z,40.37
2024-04-10T13:58:36.779Z,40.27
2024-04-10T13:59:36.799Z,39.76
2024-04-10T14:00:36.793Z,40.06
2024-04-10T14:01:36.797Z,40.29
2024-04-10T14:02:36.848Z,40.47
2024-04-10T14:03:41.924Z,39.88
2024-04-10T14:04:36.754Z,40.06
2024-04-10T14:05:36.783Z,39.06
2024-04-10T14:06:36.692Z,38.45
2024-04-10T14:07:36.662Z,38.85
2024-04-10T14:08:36.706Z,39.78
2024-04-10T14:09:36.636Z,39.06
2024-04-10T14:10:36.625Z,39.46
2024-04-10T14:11:36.750Z,38.77
2024-04-10T14:12:36.619Z,39.07
2024-04-10T14:13:36.617Z,39.29
2024-04-10T14:14:41.606Z,39.80
2024-04-10T14:15:36.566Z,39.82
2024-04-10T14:16:36.685Z,40.11
2024-04-10T14:17:36.787Z,39.37
2024-04-10T14:18:36.684Z,39.88
2024-04-10T14:19:36.541Z,38.87
2024-04-10T14:20:36.596Z,38.85
2024-04-10T14:21:36.506Z,38.97
2024-04-10T14:22:36.512Z,37.55
2024-04-10T14:23:36.556Z,38.46
2024-04-10T14:24:36.480Z,38.97
2024-04-10T14:25:41.492Z,38.67
2024-04-10T14:26:36.541Z,38.85
2024-04-10T14:27:36.437Z,38.75
2024-04-10T14:28:36.434Z,39.06
2024-04-10T14:29:37.069Z,38.93
2024-04-10T14:30:36.410Z,38.84
2024-04-10T14:31:36.385Z,37.62
2024-04-10T14:32:36.503Z,37.70
2024-04-10T14:33:36.615Z,37.50
2024-04-10T14:34:36.443Z,37.30
2024-04-10T14:35:36.438Z,36.99
2024-04-10T14:36:41.402Z,37.70
2024-04-10T14:37:36.346Z,37.52
2024-04-10T14:38:36.381Z,37.72
2024-04-10T14:39:36.308Z,37.60
2024-04-10T14:40:36.299Z,37.30
2024-04-10T14:41:36.334Z,37.90
2024-04-10T14:42:36.285Z,37.60
2024-04-10T14:43:36.262Z,36.90
2024-04-10T14:44:36.303Z,36.90
2024-04-10T14:45:36.241Z,36.69
2024-04-10T14:46:36.288Z,36.77
2024-04-10T14:47:41.357Z,36.77
2024-04-10T14:48:36.277Z,37.40
2024-04-10T14:49:36.211Z,38.41
2024-04-10T14:50:36.217Z,38.11
2024-04-10T14:51:36.823Z,37.72
2024-04-10T14:52:36.159Z,38.13
2024-04-10T14:53:36.273Z,38.63
2024-04-10T14:54:36.142Z,38.93
2024-04-10T14:55:36.126Z,38.14
2024-04-10T14:56:36.168Z,37.92
2024-04-10T14:57:36.667Z,37.32
2024-04-10T14:58:41.116Z,37.42
2024-04-10T14:59:36.121Z,38.63
2024-04-10T15:00:36.124Z,37.60
2024-04-10T15:01:36.053Z,38.31
2024-04-10T15:02:36.145Z,37.60
2024-04-10T15:03:37.579Z,36.90
2024-04-10T15:04:36.103Z,37.30
2024-04-10T15:05:36.135Z,36.77
2024-04-10T15:06:35.999Z,36.68
2024-04-10T15:07:36.002Z,37.20
2024-04-10T15:08:36.025Z,37.10
2024-04-10T15:09:41.000Z,37.48
2024-04-10T15:10:35.952Z,37.40
2024-04-10T15:11:36.111Z,37.81
2024-04-10T15:12:36.044Z,37.62
2024-04-10T15:13:35.939Z,37.32
2024-04-10T15:14:35.944Z,37.42
2024-04-10T15:15:35.902Z,36.71
2024-04-10T15:16:36.197Z,36.71
2024-04-10T15:17:35.985Z,37.32
2024-04-10T15:18:35.926Z,37.03
2024-04-10T15:19:35.886Z,37.84
2024-04-10T15:20:41.007Z,37.84
2024-04-10T15:21:35.841Z,37.43
2024-04-10T15:22:35.817Z,36.63
2024-04-10T15:23:35.854Z,37.23
2024-04-10T15:24:35.842Z,37.34
2024-04-10T15:25:35.803Z,37.03
2024-04-10T15:26:35.806Z,37.84
2024-04-10T15:27:35.760Z,37.03
2024-04-10T15:28:35.748Z,36.83
2024-04-10T15:29:35.818Z,36.43
2024-04-10T15:30:35.752Z,36.83
2024-04-10T15:31:40.740Z,36.91
2024-04-10T15:32:35.957Z,37.21
2024-04-10T15:33:35.947Z,35.50
2024-04-10T15:34:35.824Z,35.09
2024-04-10T15:35:35.750Z,34.99
2024-04-10T15:36:35.689Z,34.99
2024-04-10T15:37:35.649Z,35.50
2024-04-10T15:38:35.691Z,35.09
2024-04-10T15:39:35.750Z,35.70
2024-04-10T15:40:35.629Z,35.39
2024-04-10T15:41:35.676Z,36.00
2024-04-10T15:42:40.628Z,35.80
2024-04-10T15:43:35.592Z,34.99
2024-04-10T15:44:35.668Z,35.90
2024-04-10T15:45:35.565Z,34.48
2024-04-10T15:46:35.558Z,34.89
2024-04-10T15:47:35.769Z,34.80
2024-04-10T15:48:35.623Z,34.99
2024-04-10T15:49:35.592Z,35.30
2024-04-10T15:50:35.606Z,35.19
2024-04-10T15:51:35.500Z,35.39
2024-04-10T15:52:49.537Z,35.38
2024-04-10T15:53:41.581Z,35.50
2024-04-10T15:54:35.465Z,35.68
2024-04-10T15:55:35.486Z,35.17
2024-04-10T15:56:35.536Z,35.28
2024-04-10T15:57:35.427Z,35.38
2024-04-10T15:58:35.415Z,35.58
2024-04-10T15:59:35.438Z,35.39
2024-04-10T16:00:35.465Z,35.90
2024-04-10T16:01:35.410Z,35.80
2024-04-10T16:02:35.468Z,35.92
2024-04-10T16:03:35.761Z,36.61
2024-04-10T16:04:40.468Z,36.41
2024-04-10T16:05:35.411Z,35.70
2024-04-10T16:06:35.335Z,35.60
2024-04-10T16:07:35.337Z,35.90
2024-04-10T16:08:35.366Z,36.00
2024-04-10T16:09:35.298Z,36.00
2024-04-10T16:10:35.291Z,35.90
2024-04-10T16:11:35.345Z,36.61
2024-04-10T16:12:35.399Z,34.80
2024-04-10T16:13:35.275Z,35.51
2024-04-10T16:14:35.251Z,35.83
2024-04-10T16:15:40.257Z,35.31
2024-04-10T16:16:35.382Z,35.01
2024-04-10T16:17:35.268Z,35.61
2024-04-10T16:18:35.380Z,34.91
2024-04-10T16:19:35.202Z,35.33
2024-04-10T16:20:35.236Z,35.22
2024-04-10T16:21:35.171Z,35.33
2024-04-10T16:22:35.150Z,35.22
2024-04-10T16:23:35.178Z,35.63
2024-04-10T16:24:35.137Z,35.63
2024-04-10T16:25:35.129Z,35.94
2024-04-10T16:26:40.138Z,34.82
2024-04-10T16:27:35.145Z,35.33
2024-04-10T16:28:35.085Z,35.53
2024-04-10T16:29:35.127Z,35.53
2024-04-10T16:30:35.072Z,35.73
2024-04-10T16:31:35.091Z,35.75
2024-04-10T16:32:35.215Z,35.85
2024-04-10T16:33:35.246Z,35.63
2024-04-10T16:34:35.119Z,35.63
2024-04-10T16:35:35.053Z,34.94
2024-04-10T16:36:34.992Z,35.65
2024-04-10T16:37:40.030Z,35.24
2024-04-10T16:38:34.981Z,35.14
2024-04-10T16:39:34.968Z,35.14
2024-04-10T16:40:34.961Z,35.85
2024-04-10T16:41:34.986Z,35.75
2024-04-10T16:42:34.922Z,35.85
2024-04-10T16:43:37.865Z,36.87
2024-04-10T16:44:34.949Z,36.87
2024-04-10T16:45:34.908Z,36.74
2024-04-10T16:46:34.905Z,36.76
2024-04-10T16:47:34.919Z,37.16
2024-04-10T16:48:40.072Z,37.16
2024-04-10T16:49:34.853Z,37.88
2024-04-10T16:50:34.867Z,38.08
2024-04-10T16:51:34.837Z,38.08
2024-04-10T16:52:34.811Z,37.99
2024-04-10T16:53:34.832Z,38.60
2024-04-10T16:54:34.785Z,39.01
2024-04-10T16:55:34.774Z,39.11
2024-04-10T16:56:34.964Z,38.60
2024-04-10T16:57:34.767Z,38.99
2024-04-10T16:58:34.752Z,39.21
2024-04-10T16:59:39.776Z,38.91
2024-04-10T17:00:34.730Z,38.48
2024-04-10T17:01:34.796Z,38.68
2024-04-10T17:02:34.843Z,38.50
2024-04-10T17:03:34.744Z,38.70
2024-04-10T17:04:34.776Z,39.11
2024-04-10T17:05:34.732Z,39.01
2024-04-10T17:06:34.659Z,38.91
2024-04-10T17:07:34.665Z,39.01
2024-04-10T17:08:34.733Z,39.01
2024-04-10T17:09:34.632Z,38.60
2024-04-10T17:10:39.701Z,38.91
2024-04-10T17:11:34.690Z,39.72
2024-04-10T17:12:34.640Z,39.43
2024-04-10T17:13:34.573Z,39.53
2024-04-10T17:14:34.699Z,39.72
2024-04-10T17:15:34.555Z,40.33
2024-04-10T17:16:34.638Z,39.94
2024-04-10T17:17:34.628Z,40.14
2024-04-10T17:18:34.643Z,40.45
2024-04-10T17:19:34.518Z,40.14
2024-04-10T17:20:34.559Z,39.64
2024-04-10T17:21:39.516Z,40.75
2024-04-10T17:22:34.473Z,40.85
2024-04-10T17:23:34.476Z,40.45
2024-04-10T17:24:34.457Z,40.45
2024-04-10T17:25:34.429Z,40.75
2024-04-10T17:26:34.570Z,41.05
2024-04-10T17:27:34.421Z,41.16
2024-04-10T17:28:34.427Z,40.75
2024-04-10T17:29:34.415Z,40.95
2024-04-10T17:30:34.387Z,40.87
2024-04-10T17:31:34.376Z,40.85
2024-04-10T17:32:39.522Z,40.55
2024-04-10T17:33:34.626Z,41.16
2024-04-10T17:34:34.458Z,41.17
2024-04-10T17:35:34.423Z,40.97
2024-04-10T17:36:34.311Z,40.65
2024-04-10T17:37:34.316Z,41.28
2024-04-10T17:38:34.398Z,41.17
2024-04-10T17:39:34.274Z,41.07
2024-04-10T17:40:34.317Z,41.17
2024-04-10T17:41:34.320Z,41.07
2024-04-10T17:42:34.276Z,41.68
2024-04-10T17:43:39.286Z,41.68
2024-04-10T17:44:34.361Z,41.99
2024-04-10T17:45:34.223Z,41.48
2024-04-10T17:46:34.531Z,41.38
2024-04-10T17:47:34.318Z,41.28
2024-04-10T17:48:34.369Z,42.09
2024-04-10T17:49:34.182Z,41.48
2024-04-10T17:50:34.182Z,41.68
2024-04-10T17:51:34.137Z,41.88
2024-04-10T17:52:34.146Z,41.88
2024-04-10T17:53:34.108Z,41.99